sensor_id;sensor_type;location;lat;lon;timestamp;pressure;altitude;pressure_sealevel;temperature;humidity
1832;BME280;1680;48.106;11.708;2022-08-19T13:31:05;95131.28;;;24.02;79.61
1832;BME280;1680;48.106;11.708;2022-08-19T13:43:51;95120.94;;;22.98;81.80
1832;BME280;1680;48.106;11.708;2022-08-19T13:46:20;95116.94;;;23.81;75.07
1832;BME280;1680;48.106;11.708;2022-08-19T13:48:47;95113.94;;;24.00;73.84
1832;BME280;1680;48.106;11.708;2022-08-19T13:51:14;95117.41;;;24.26;72.61
1832;BME280;1680;48.106;11.708;2022-08-19T13:53:42;95118.78;;;24.57;72.04
1832;BME280;1680;48.106;11.708;2022-08-19T13:56:12;95118.69;;;24.91;71.47
1832;BME280;1680;48.106;11.708;2022-08-19T13:58:40;95102.06;;;25.06;69.58
1832;BME280;1680;48.106;11.708;2022-08-19T14:01:10;95111.56;;;25.32;68.98
1832;BME280;1680;48.106;11.708;2022-08-19T14:03:37;95119.25;;;25.71;68.92
1832;BME280;1680;48.106;11.708;2022-08-19T14:06:05;95110.84;;;25.52;69.90
1832;BME280;1680;48.106;11.708;2022-08-19T14:08:32;95118.38;;;25.30;70.73
1832;BME280;1680;48.106;11.708;2022-08-19T14:10:59;95112.47;;;25.45;69.33
1832;BME280;1680;48.106;11.708;2022-08-19T14:13:26;95119.22;;;25.51;70.86
1832;BME280;1680;48.106;11.708;2022-08-19T14:15:53;95127.75;;;25.24;70.45
1832;BME280;1680;48.106;11.708;2022-08-19T14:18:21;95129.31;;;24.79;72.60
1832;BME280;1680;48.106;11.708;2022-08-19T14:20:48;95121.34;;;24.28;74.10
1832;BME280;1680;48.106;11.708;2022-08-19T14:23:17;95130.34;;;24.49;74.92
1832;BME280;1680;48.106;11.708;2022-08-19T14:25:44;95132.00;;;24.79;73.98
1832;BME280;1680;48.106;11.708;2022-08-19T14:28:11;95139.28;;;24.61;72.80
1832;BME280;1680;48.106;11.708;2022-08-19T14:30:38;95135.19;;;25.10;70.82
1832;BME280;1680;48.106;11.708;2022-08-19T14:33:07;95128.09;;;25.43;70.83
1832;BME280;1680;48.106;11.708;2022-08-19T14:35:36;95139.47;;;25.02;71.43
1832;BME280;1680;48.106;11.708;2022-08-19T14:38:04;95133.28;;;25.76;69.86
1832;BME280;1680;48.106;11.708;2022-08-19T14:40:31;95126.31;;;25.75;69.90
1832;BME280;1680;48.106;11.708;2022-08-19T14:43:02;95129.00;;;25.55;68.79
1832;BME280;1680;48.106;11.708;2022-08-19T14:45:31;95134.56;;;25.13;70.49
1832;BME280;1680;48.106;11.708;2022-08-19T14:47:58;95142.28;;;24.60;71.28
1832;BME280;1680;48.106;11.708;2022-08-19T14:50:26;95129.66;;;24.35;72.92
1832;BME280;1680;48.106;11.708;2022-08-19T14:53:00;95115.84;;;24.08;74.86
1832;BME280;1680;48.106;11.708;2022-08-19T14:55:27;95120.88;;;23.92;76.15
1832;BME280;1680;48.106;11.708;2022-08-19T14:57:54;95123.25;;;23.77;76.40
1832;BME280;1680;48.106;11.708;2022-08-19T15:00:25;95117.69;;;23.73;77.57
1832;BME280;1680;48.106;11.708;2022-08-19T15:02:56;95110.13;;;23.58;79.28
1832;BME280;1680;48.106;11.708;2022-08-19T15:05:24;95120.56;;;24.11;77.83
1832;BME280;1680;48.106;11.708;2022-08-19T15:07:55;95125.88;;;24.36;75.22
1832;BME280;1680;48.106;11.708;2022-08-19T15:10:23;95130.00;;;24.08;75.79
1832;BME280;1680;48.106;11.708;2022-08-19T15:12:50;95131.13;;;24.07;75.99
1832;BME280;1680;48.106;11.708;2022-08-19T15:15:17;95132.69;;;23.83;77.62
1832;BME280;1680;48.106;11.708;2022-08-19T15:17:44;95136.31;;;24.12;77.01
1832;BME280;1680;48.106;11.708;2022-08-19T15:20:15;95138.53;;;24.02;74.97
1832;BME280;1680;48.106;11.708;2022-08-19T15:22:42;95143.31;;;23.41;78.81
1832;BME280;1680;48.106;11.708;2022-08-19T15:25:15;95138.69;;;23.33;78.66
1832;BME280;1680;48.106;11.708;2022-08-19T15:27:45;95156.72;;;23.10;81.96
1832;BME280;1680;48.106;11.708;2022-08-19T15:30:20;95153.97;;;23.24;79.55
1832;BME280;1680;48.106;11.708;2022-08-19T15:32:47;95149.50;;;23.75;75.65
1832;BME280;1680;48.106;11.708;2022-08-19T15:35:15;95159.34;;;24.39;72.05
1832;BME280;1680;48.106;11.708;2022-08-19T15:37:43;95143.84;;;24.78;69.47
1832;BME280;1680;48.106;11.708;2022-08-19T15:40:11;95156.31;;;24.74;71.34
1832;BME280;1680;48.106;11.708;2022-08-19T15:42:38;95180.16;;;24.50;71.50
1832;BME280;1680;48.106;11.708;2022-08-19T15:45:09;95168.47;;;24.29;72.53
1832;BME280;1680;48.106;11.708;2022-08-19T15:47:37;95181.09;;;24.03;74.08
1832;BME280;1680;48.106;11.708;2022-08-19T15:50:05;95185.88;;;23.67;76.69
1832;BME280;1680;48.106;11.708;2022-08-19T15:52:33;95183.69;;;22.92;80.29
1832;BME280;1680;48.106;11.708;2022-08-19T15:55:04;95195.63;;;22.64;84.06
1832;BME280;1680;48.106;11.708;2022-08-19T15:57:36;95188.72;;;22.63;86.19
1832;BME280;1680;48.106;11.708;2022-08-19T16:00:22;95185.34;;;22.14;93.12
1832;BME280;1680;48.106;11.708;2022-08-19T16:03:12;95185.22;;;22.62;97.94
1832;BME280;1680;48.106;11.708;2022-08-19T16:05:56;95188.00;;;22.49;98.49
1832;BME280;1680;48.106;11.708;2022-08-19T16:08:43;95182.09;;;22.03;100.00
1832;BME280;1680;48.106;11.708;2022-08-19T16:11:12;95180.50;;;22.16;100.00
1832;BME280;1680;48.106;11.708;2022-08-19T16:13:39;95193.00;;;22.29;100.00
1832;BME280;1680;48.106;11.708;2022-08-19T16:16:07;95199.78;;;22.48;100.00
1832;BME280;1680;48.106;11.708;2022-08-19T16:18:34;95202.47;;;22.78;100.00
1832;BME280;1680;48.106;11.708;2022-08-19T16:21:03;95211.47;;;22.82;96.05
1832;BME280;1680;48.106;11.708;2022-08-19T16:23:32;95181.47;;;22.63;97.39
1832;BME280;1680;48.106;11.708;2022-08-19T16:26:02;95206.34;;;23.16;93.21
1832;BME280;1680;48.106;11.708;2022-08-19T16:28:29;95200.47;;;24.43;87.51
1832;BME280;1680;48.106;11.708;2022-08-19T16:30:56;95202.19;;;24.89;79.89
1832;BME280;1680;48.106;11.708;2022-08-19T16:33:24;95201.88;;;24.91;78.71
1832;BME280;1680;48.106;11.708;2022-08-19T16:35:51;95200.31;;;24.22;80.72
1832;BME280;1680;48.106;11.708;2022-08-19T16:38:18;95201.97;;;23.76;83.88
1832;BME280;1680;48.106;11.708;2022-08-19T16:40:44;95210.16;;;23.24;86.75
1832;BME280;1680;48.106;11.708;2022-08-19T16:43:19;95205.59;;;22.72;89.06
1832;BME280;1680;48.106;11.708;2022-08-19T16:45:47;95221.41;;;22.60;90.09
1832;BME280;1680;48.106;11.708;2022-08-19T16:48:17;95220.44;;;21.85;93.15
1832;BME280;1680;48.106;11.708;2022-08-19T16:50:45;95225.50;;;21.73;95.45
1832;BME280;1680;48.106;11.708;2022-08-19T16:53:12;95227.06;;;21.61;95.34
1832;BME280;1680;48.106;11.708;2022-08-19T16:55:44;95236.44;;;21.45;98.85
1832;BME280;1680;48.106;11.708;2022-08-19T16:58:11;95234.28;;;21.34;98.67
1832;BME280;1680;48.106;11.708;2022-08-19T17:00:43;95243.47;;;21.28;100.00
1832;BME280;1680;48.106;11.708;2022-08-19T17:03:10;95250.66;;;21.41;99.86
1832;BME280;1680;48.106;11.708;2022-08-19T17:05:41;95246.41;;;21.40;100.00
1832;BME280;1680;48.106;11.708;2022-08-19T17:08:09;95254.84;;;21.47;100.00
1832;BME280;1680;48.106;11.708;2022-08-19T17:10:36;95257.69;;;21.37;100.00
1832;BME280;1680;48.106;11.708;2022-08-19T17:13:03;95267.47;;;21.28;100.00
1832;BME280;1680;48.106;11.708;2022-08-19T17:15:30;95264.00;;;21.14;100.00
1832;BME280;1680;48.106;11.708;2022-08-19T17:18:01;95269.00;;;21.02;100.00
1832;BME280;1680;48.106;11.708;2022-08-19T17:20:28;95272.75;;;21.01;100.00
1832;BME280;1680;48.106;11.708;2022-08-19T17:22:56;95268.19;;;21.01;100.00
1832;BME280;1680;48.106;11.708;2022-08-19T17:25:25;95275.03;;;21.21;100.00
1832;BME280;1680;48.106;11.708;2022-08-19T17:27:53;95268.31;;;20.96;100.00
1832;BME280;1680;48.106;11.708;2022-08-19T17:30:21;95286.75;;;20.93;100.00
1832;BME280;1680;48.106;11.708;2022-08-19T17:32:49;95283.88;;;20.89;100.00
1832;BME280;1680;48.106;11.708;2022-08-19T17:35:16;95281.09;;;20.81;100.00
1832;BME280;1680;48.106;11.708;2022-08-19T17:37:45;95279.94;;;20.87;100.00
1832;BME280;1680;48.106;11.708;2022-08-19T17:40:13;95271.69;;;20.83;100.00
1832;BME280;1680;48.106;11.708;2022-08-19T17:42:41;95285.69;;;20.75;100.00
1832;BME280;1680;48.106;11.708;2022-08-19T17:45:09;95280.34;;;20.75;100.00
1832;BME280;1680;48.106;11.708;2022-08-19T17:47:39;95293.47;;;20.72;100.00
1832;BME280;1680;48.106;11.708;2022-08-19T17:50:08;95295.28;;;20.58;100.00
1832;BME280;1680;48.106;11.708;2022-08-19T17:52:38;95296.03;;;20.77;100.00
1832;BME280;1680;48.106;11.708;2022-08-19T17:55:06;95302.44;;;20.76;100.00
1832;BME280;1680;48.106;11.708;2022-08-19T17:57:36;95303.19;;;20.63;100.00
1832;BME280;1680;48.106;11.708;2022-08-19T18:00:08;95307.38;;;20.69;100.00
1832;BME280;1680;48.106;11.708;2022-08-19T18:02:43;95313.13;;;20.76;100.00
1832;BME280;1680;48.106;11.708;2022-08-19T18:05:10;95314.22;;;20.75;100.00
1832;BME280;1680;48.106;11.708;2022-08-19T18:07:37;95320.78;;;20.64;100.00
1832;BME280;1680;48.106;11.708;2022-08-19T18:10:05;95317.22;;;20.68;100.00
1832;BME280;1680;48.106;11.708;2022-08-19T18:12:32;95315.44;;;20.64;100.00
1832;BME280;1680;48.106;11.708;2022-08-19T18:15:03;95325.13;;;20.60;100.00
1832;BME280;1680;48.106;11.708;2022-08-19T18:17:31;95320.88;;;20.59;100.00
1832;BME280;1680;48.106;11.708;2022-08-19T18:19:59;95323.66;;;20.49;100.00
1832;BME280;1680;48.106;11.708;2022-08-19T18:22:30;95327.50;;;20.43;100.00
1832;BME280;1680;48.106;11.708;2022-08-19T18:24:59;95325.81;;;20.29;100.00
1832;BME280;1680;48.106;11.708;2022-08-19T18:27:26;95321.34;;;20.24;100.00
1832;BME280;1680;48.106;11.708;2022-08-19T18:29:53;95324.13;;;20.38;100.00
1832;BME280;1680;48.106;11.708;2022-08-19T18:32:24;95317.63;;;20.25;100.00
1832;BME280;1680;48.106;11.708;2022-08-19T18:34:53;95322.06;;;20.11;100.00
1832;BME280;1680;48.106;11.708;2022-08-19T18:37:20;95319.09;;;20.13;100.00
1832;BME280;1680;48.106;11.708;2022-08-19T18:39:51;95322.06;;;20.11;100.00
1832;BME280;1680;48.106;11.708;2022-08-19T18:42:42;95324.06;;;20.19;100.00
1832;BME280;1680;48.106;11.708;2022-08-19T18:45:29;95335.59;;;20.15;100.00
1832;BME280;1680;48.106;11.708;2022-08-19T18:48:14;95338.16;;;20.01;100.00
1832;BME280;1680;48.106;11.708;2022-08-19T18:51:00;95331.25;;;20.00;100.00
1832;BME280;1680;48.106;11.708;2022-08-19T18:53:29;95333.16;;;20.18;100.00
1832;BME280;1680;48.106;11.708;2022-08-19T18:55:56;95336.81;;;20.22;100.00
1832;BME280;1680;48.106;11.708;2022-08-19T18:58:28;95338.25;;;20.15;100.00
1832;BME280;1680;48.106;11.708;2022-08-19T19:00:59;95345.47;;;20.14;100.00
1832;BME280;1680;48.106;11.708;2022-08-19T19:03:27;95347.16;;;20.05;100.00
1832;BME280;1680;48.106;11.708;2022-08-19T19:05:53;95353.78;;;19.84;100.00
1832;BME280;1680;48.106;11.708;2022-08-19T19:08:21;95347.09;;;20.10;100.00
1832;BME280;1680;48.106;11.708;2022-08-19T19:10:49;95348.91;;;20.15;100.00
1832;BME280;1680;48.106;11.708;2022-08-19T19:13:19;95341.31;;;20.03;100.00
1832;BME280;1680;48.106;11.708;2022-08-19T19:15:45;95354.13;;;20.01;100.00
1832;BME280;1680;48.106;11.708;2022-08-19T19:18:12;95356.16;;;20.09;100.00
1832;BME280;1680;48.106;11.708;2022-08-19T19:20:40;95338.47;;;19.95;100.00
1832;BME280;1680;48.106;11.708;2022-08-19T19:23:08;95353.72;;;19.89;100.00
1832;BME280;1680;48.106;11.708;2022-08-19T19:25:36;95354.41;;;19.76;100.00
1832;BME280;1680;48.106;11.708;2022-08-19T19:28:03;95356.28;;;19.76;100.00
1832;BME280;1680;48.106;11.708;2022-08-19T19:30:30;95358.69;;;19.72;100.00
1832;BME280;1680;48.106;11.708;2022-08-19T19:32:57;95362.44;;;19.71;100.00
1832;BME280;1680;48.106;11.708;2022-08-19T19:35:25;95368.81;;;19.70;100.00
1832;BME280;1680;48.106;11.708;2022-08-19T19:37:54;95365.69;;;19.68;100.00
1832;BME280;1680;48.106;11.708;2022-08-19T19:40:21;95373.66;;;19.68;100.00
1832;BME280;1680;48.106;11.708;2022-08-19T19:42:49;95370.31;;;19.58;100.00
1832;BME280;1680;48.106;11.708;2022-08-19T19:45:17;95354.78;;;19.65;100.00
1832;BME280;1680;48.106;11.708;2022-08-19T19:47:49;95373.75;;;19.58;100.00
1832;BME280;1680;48.106;11.708;2022-08-19T19:50:16;95379.72;;;19.46;100.00
1832;BME280;1680;48.106;11.708;2022-08-19T19:52:44;95374.22;;;19.37;100.00
1832;BME280;1680;48.106;11.708;2022-08-19T19:55:12;95386.44;;;19.38;100.00
1832;BME280;1680;48.106;11.708;2022-08-19T19:57:42;95361.22;;;19.36;100.00
1832;BME280;1680;48.106;11.708;2022-08-19T20:00:14;95380.25;;;19.48;100.00
1832;BME280;1680;48.106;11.708;2022-08-19T20:02:42;95378.44;;;19.43;100.00
1832;BME280;1680;48.106;11.708;2022-08-19T20:05:12;95393.66;;;19.38;100.00
1832;BME280;1680;48.106;11.708;2022-08-19T20:07:39;95397.50;;;19.22;100.00
1832;BME280;1680;48.106;11.708;2022-08-19T20:10:24;95398.81;;;19.24;100.00
1832;BME280;1680;48.106;11.708;2022-08-19T20:12:51;95400.75;;;19.14;100.00
1832;BME280;1680;48.106;11.708;2022-08-19T20:15:20;95411.41;;;19.09;100.00
1832;BME280;1680;48.106;11.708;2022-08-19T20:17:48;95412.81;;;19.01;100.00
1832;BME280;1680;48.106;11.708;2022-08-19T20:20:16;95401.34;;;19.01;100.00
1832;BME280;1680;48.106;11.708;2022-08-19T20:22:45;95411.38;;;19.14;100.00
1832;BME280;1680;48.106;11.708;2022-08-19T20:25:13;95413.56;;;19.07;100.00
1832;BME280;1680;48.106;11.708;2022-08-19T20:27:41;95396.44;;;18.84;100.00
1832;BME280;1680;48.106;11.708;2022-08-19T20:30:10;95422.94;;;18.94;100.00
1832;BME280;1680;48.106;11.708;2022-08-19T20:32:39;95418.97;;;18.92;100.00
1832;BME280;1680;48.106;11.708;2022-08-19T20:35:08;95432.50;;;18.95;100.00
1832;BME280;1680;48.106;11.708;2022-08-19T20:37:35;95417.84;;;18.98;100.00
1832;BME280;1680;48.106;11.708;2022-08-19T20:40:02;95433.50;;;19.04;100.00
1832;BME280;1680;48.106;11.708;2022-08-19T20:42:31;95431.63;;;19.10;100.00
1832;BME280;1680;48.106;11.708;2022-08-19T20:44:58;95422.31;;;19.12;100.00
1832;BME280;1680;48.106;11.708;2022-08-19T20:47:24;95420.94;;;19.20;100.00
1832;BME280;1680;48.106;11.708;2022-08-19T20:49:55;95432.13;;;19.12;100.00
1832;BME280;1680;48.106;11.708;2022-08-19T20:52:22;95414.06;;;19.09;100.00
1832;BME280;1680;48.106;11.708;2022-08-19T20:54:49;95417.81;;;19.08;100.00
1832;BME280;1680;48.106;11.708;2022-08-19T20:57:15;95418.44;;;18.95;100.00
1832;BME280;1680;48.106;11.708;2022-08-19T20:59:42;95422.16;;;18.94;100.00
1832;BME280;1680;48.106;11.708;2022-08-19T21:02:09;95413.91;;;18.95;100.00
1832;BME280;1680;48.106;11.708;2022-08-19T21:04:36;95411.56;;;18.84;100.00
1832;BME280;1680;48.106;11.708;2022-08-19T21:07:04;95417.41;;;18.86;100.00
1832;BME280;1680;48.106;11.708;2022-08-19T21:09:33;95420.56;;;18.93;100.00
1832;BME280;1680;48.106;11.708;2022-08-19T21:12:03;95411.06;;;18.82;100.00
1832;BME280;1680;48.106;11.708;2022-08-19T21:14:30;95432.59;;;18.80;100.00
1832;BME280;1680;48.106;11.708;2022-08-19T21:16:57;95439.69;;;18.95;100.00
1832;BME280;1680;48.106;11.708;2022-08-19T21:19:24;95434.94;;;18.92;100.00
1832;BME280;1680;48.106;11.708;2022-08-19T21:21:50;95434.84;;;19.02;100.00
1832;BME280;1680;48.106;11.708;2022-08-19T21:24:19;95437.28;;;18.93;100.00
1832;BME280;1680;48.106;11.708;2022-08-19T21:26:48;95424.88;;;18.84;100.00
1832;BME280;1680;48.106;11.708;2022-08-19T21:29:17;95439.97;;;18.88;100.00
1832;BME280;1680;48.106;11.708;2022-08-19T21:31:44;95416.13;;;18.78;100.00
1832;BME280;1680;48.106;11.708;2022-08-19T21:34:11;95430.34;;;19.02;100.00
1832;BME280;1680;48.106;11.708;2022-08-19T21:36:38;95439.94;;;18.98;100.00
1832;BME280;1680;48.106;11.708;2022-08-19T21:39:08;95436.97;;;19.00;100.00
1832;BME280;1680;48.106;11.708;2022-08-19T21:41:36;95444.41;;;19.03;100.00
1832;BME280;1680;48.106;11.708;2022-08-19T21:44:02;95440.47;;;18.95;100.00
1832;BME280;1680;48.106;11.708;2022-08-19T21:46:29;95439.94;;;18.93;100.00
1832;BME280;1680;48.106;11.708;2022-08-19T21:48:56;95439.63;;;19.05;100.00
1832;BME280;1680;48.106;11.708;2022-08-19T21:51:23;95441.84;;;18.93;100.00
1832;BME280;1680;48.106;11.708;2022-08-19T21:53:50;95454.31;;;18.92;100.00
1832;BME280;1680;48.106;11.708;2022-08-19T21:56:17;95448.16;;;18.97;100.00
1832;BME280;1680;48.106;11.708;2022-08-19T21:58:45;95451.88;;;19.01;100.00
1832;BME280;1680;48.106;11.708;2022-08-19T22:01:11;95448.66;;;19.04;100.00
1832;BME280;1680;48.106;11.708;2022-08-19T22:03:41;95456.88;;;19.12;100.00
1832;BME280;1680;48.106;11.708;2022-08-19T22:06:08;95450.69;;;19.22;100.00
1832;BME280;1680;48.106;11.708;2022-08-19T22:08:35;95452.00;;;19.24;100.00
1832;BME280;1680;48.106;11.708;2022-08-19T22:11:06;95448.56;;;19.24;100.00
1832;BME280;1680;48.106;11.708;2022-08-19T22:13:34;95434.31;;;19.05;100.00
1832;BME280;1680;48.106;11.708;2022-08-19T22:16:07;95443.47;;;19.27;100.00
1832;BME280;1680;48.106;11.708;2022-08-19T22:18:35;95431.81;;;19.18;100.00
1832;BME280;1680;48.106;11.708;2022-08-19T22:21:02;95435.84;;;19.11;100.00
1832;BME280;1680;48.106;11.708;2022-08-19T22:23:31;95442.25;;;19.10;100.00
1832;BME280;1680;48.106;11.708;2022-08-19T22:25:58;95444.41;;;19.03;100.00
1832;BME280;1680;48.106;11.708;2022-08-19T22:28:25;95441.22;;;19.06;100.00
1832;BME280;1680;48.106;11.708;2022-08-19T22:30:52;95433.03;;;18.97;100.00
1832;BME280;1680;48.106;11.708;2022-08-19T22:33:20;60206.16;;;-138.64;100.00
1832;BME280;1680;48.106;11.708;2022-08-19T22:35:47;60206.16;;;-138.64;100.00
1832;BME280;1680;48.106;11.708;2022-08-19T22:38:14;60206.16;;;-138.64;100.00
1832;BME280;1680;48.106;11.708;2022-08-19T22:40:45;60206.16;;;-138.64;100.00
1832;BME280;1680;48.106;11.708;2022-08-19T22:43:17;60206.16;;;-138.64;100.00
1832;BME280;1680;48.106;11.708;2022-08-19T22:45:45;60206.16;;;-138.64;100.00
1832;BME280;1680;48.106;11.708;2022-08-19T22:48:15;60206.16;;;-138.64;100.00
1832;BME280;1680;48.106;11.708;2022-08-19T22:50:45;60206.16;;;-138.64;100.00
1832;BME280;1680;48.106;11.708;2022-08-19T22:53:41;60206.16;;;-138.64;100.00
1832;BME280;1680;48.106;11.708;2022-08-19T22:56:08;60206.16;;;-138.64;100.00
1832;BME280;1680;48.106;11.708;2022-08-19T22:58:36;60206.16;;;-138.64;100.00
1832;BME280;1680;48.106;11.708;2022-08-19T23:01:04;60206.16;;;-138.64;100.00
1832;BME280;1680;48.106;11.708;2022-08-19T23:03:31;60206.16;;;-138.64;100.00
1832;BME280;1680;48.106;11.708;2022-08-19T23:06:03;60206.16;;;-138.64;100.00
1832;BME280;1680;48.106;11.708;2022-08-19T23:08:30;60206.16;;;-138.64;100.00
1832;BME280;1680;48.106;11.708;2022-08-19T23:10:57;60206.16;;;-138.64;100.00
1832;BME280;1680;48.106;11.708;2022-08-19T23:13:26;60206.16;;;-138.64;100.00
1832;BME280;1680;48.106;11.708;2022-08-19T23:15:56;60206.16;;;-138.64;100.00
1832;BME280;1680;48.106;11.708;2022-08-19T23:18:23;60206.16;;;-138.64;100.00
1832;BME280;1680;48.106;11.708;2022-08-19T23:20:50;60206.16;;;-138.64;100.00
1832;BME280;1680;48.106;11.708;2022-08-19T23:23:21;60206.16;;;-138.64;100.00
1832;BME280;1680;48.106;11.708;2022-08-19T23:25:49;60206.16;;;-138.64;100.00
1832;BME280;1680;48.106;11.708;2022-08-19T23:28:17;60206.16;;;-138.64;100.00
1832;BME280;1680;48.106;11.708;2022-08-19T23:31:03;60206.16;;;-138.64;100.00
1832;BME280;1680;48.106;11.708;2022-08-19T23:33:32;60206.16;;;-138.64;100.00
1832;BME280;1680;48.106;11.708;2022-08-19T23:36:04;60206.16;;;-138.64;100.00
1832;BME280;1680;48.106;11.708;2022-08-19T23:38:33;60206.16;;;-138.64;100.00
1832;BME280;1680;48.106;11.708;2022-08-19T23:41:03;60206.16;;;-138.64;100.00
1832;BME280;1680;48.106;11.708;2022-08-19T23:43:32;60206.16;;;-138.64;100.00
1832;BME280;1680;48.106;11.708;2022-08-19T23:46:01;60206.16;;;-138.64;100.00
1832;BME280;1680;48.106;11.708;2022-08-19T23:48:32;60206.16;;;-138.64;100.00
1832;BME280;1680;48.106;11.708;2022-08-19T23:51:06;60206.16;;;-138.64;100.00
1832;BME280;1680;48.106;11.708;2022-08-19T23:53:35;60206.16;;;-138.64;100.00
1832;BME280;1680;48.106;11.708;2022-08-19T23:56:03;60206.16;;;-138.64;100.00
1832;BME280;1680;48.106;11.708;2022-08-19T23:58:31;60206.16;;;-138.64;100.00
